sensor_id;sensor_type;location;lat;lon;timestamp;P1;durP1;ratioP1;P2;durP2;ratioP2
19733;SDS011;10018;51.230;7.860;2023-06-24T00:02:01;9.83;;;6.70;;
19733;SDS011;10018;51.230;7.860;2023-06-24T00:04:27;9.57;;;6.43;;
19733;SDS011;10018;51.230;7.860;2023-06-24T00:06:52;10.20;;;6.60;;
19733;SDS011;10018;51.230;7.860;2023-06-24T00:09:21;11.97;;;6.27;;
19733;SDS011;10018;51.230;7.860;2023-06-24T00:11:47;10.67;;;6.27;;
19733;SDS011;10018;51.230;7.860;2023-06-24T00:14:15;8.97;;;6.33;;
19733;SDS011;10018;51.230;7.860;2023-06-24T00:16:40;9.47;;;6.13;;
19733;SDS011;10018;51.230;7.860;2023-06-24T00:19:06;10.53;;;6.40;;
19733;SDS011;10018;51.230;7.860;2023-06-24T00:21:33;11.17;;;7.03;;
19733;SDS011;10018;51.230;7.860;2023-06-24T00:24:02;9.83;;;7.33;;
19733;SDS011;10018;51.230;7.860;2023-06-24T00:26:29;9.43;;;7.20;;
19733;SDS011;10018;51.230;7.860;2023-06-24T00:28:56;11.63;;;7.10;;
19733;SDS011;10018;51.230;7.860;2023-06-24T00:31:22;12.57;;;7.53;;
19733;SDS011;10018;51.230;7.860;2023-06-24T00:33:48;11.03;;;7.00;;
19733;SDS011;10018;51.230;7.860;2023-06-24T00:36:14;10.07;;;7.17;;
19733;SDS011;10018;51.230;7.860;2023-06-24T00:38:42;11.97;;;6.77;;
19733;SDS011;10018;51.230;7.860;2023-06-24T00:41:08;11.77;;;6.80;;
19733;SDS011;10018;51.230;7.860;2023-06-24T00:43:34;8.27;;;6.40;;
19733;SDS011;10018;51.230;7.860;2023-06-24T00:46:00;11.80;;;6.77;;
19733;SDS011;10018;51.230;7.860;2023-06-24T00:48:26;9.90;;;6.47;;
19733;SDS011;10018;51.230;7.860;2023-06-24T00:50:51;9.80;;;6.93;;
19733;SDS011;10018;51.230;7.860;2023-06-24T00:53:17;10.27;;;7.47;;
19733;SDS011;10018;51.230;7.860;2023-06-24T00:55:47;10.97;;;7.47;;
19733;SDS011;10018;51.230;7.860;2023-06-24T00:58:13;12.60;;;7.17;;
19733;SDS011;10018;51.230;7.860;2023-06-24T01:00:41;9.53;;;6.73;;
19733;SDS011;10018;51.230;7.860;2023-06-24T01:03:11;9.77;;;6.77;;
19733;SDS011;10018;51.230;7.860;2023-06-24T01:05:41;11.53;;;7.70;;
19733;SDS011;10018;51.230;7.860;2023-06-24T01:08:08;12.20;;;8.03;;
19733;SDS011;10018;51.230;7.860;2023-06-24T01:10:39;10.77;;;7.40;;
19733;SDS011;10018;51.230;7.860;2023-06-24T01:13:04;9.20;;;7.30;;
19733;SDS011;10018;51.230;7.860;2023-06-24T01:15:30;12.00;;;6.90;;
19733;SDS011;10018;51.230;7.860;2023-06-24T01:18:02;11.53;;;7.33;;
19733;SDS011;10018;51.230;7.860;2023-06-24T01:20:54;11.00;;;7.67;;
19733;SDS011;10018;51.230;7.860;2023-06-24T01:31:58;15.23;;;8.60;;
19733;SDS011;10018;51.230;7.860;2023-06-24T01:34:36;13.23;;;8.17;;
19733;SDS011;10018;51.230;7.860;2023-06-24T01:40:14;11.03;;;8.23;;
19733;SDS011;10018;51.230;7.860;2023-06-24T01:43:02;14.53;;;8.13;;
19733;SDS011;10018;51.230;7.860;2023-06-24T01:45:32;11.37;;;7.67;;
19733;SDS011;10018;51.230;7.860;2023-06-24T01:48:14;11.63;;;7.97;;
19733;SDS011;10018;51.230;7.860;2023-06-24T01:51:27;9.73;;;7.43;;
19733;SDS011;10018;51.230;7.860;2023-06-24T01:53:38;12.30;;;7.40;;
19733;SDS011;10018;51.230;7.860;2023-06-24T01:56:08;9.70;;;7.20;;
19733;SDS011;10018;51.230;7.860;2023-06-24T01:58:39;9.63;;;7.50;;
19733;SDS011;10018;51.230;7.860;2023-06-24T02:01:10;9.97;;;7.53;;
19733;SDS011;10018;51.230;7.860;2023-06-24T02:03:37;12.57;;;8.33;;
19733;SDS011;10018;51.230;7.860;2023-06-24T02:06:05;10.43;;;7.40;;
19733;SDS011;10018;51.230;7.860;2023-06-24T02:08:34;10.40;;;7.10;;
19733;SDS011;10018;51.230;7.860;2023-06-24T02:11:04;10.73;;;7.20;;
19733;SDS011;10018;51.230;7.860;2023-06-24T02:13:32;14.30;;;6.97;;
19733;SDS011;10018;51.230;7.860;2023-06-24T02:16:03;10.83;;;8.07;;
19733;SDS011;10018;51.230;7.860;2023-06-24T02:18:35;15.77;;;8.63;;
19733;SDS011;10018;51.230;7.860;2023-06-24T02:21:07;13.27;;;8.17;;
19733;SDS011;10018;51.230;7.860;2023-06-24T02:23:38;14.50;;;8.83;;
19733;SDS011;10018;51.230;7.860;2023-06-24T02:26:06;13.37;;;9.10;;
19733;SDS011;10018;51.230;7.860;2023-06-24T02:28:32;11.67;;;8.33;;
19733;SDS011;10018;51.230;7.860;2023-06-24T02:30:59;13.30;;;9.13;;
19733;SDS011;10018;51.230;7.860;2023-06-24T02:33:25;13.80;;;9.07;;
19733;SDS011;10018;51.230;7.860;2023-06-24T02:35:51;13.60;;;8.83;;
19733;SDS011;10018;51.230;7.860;2023-06-24T02:38:17;13.90;;;9.00;;
19733;SDS011;10018;51.230;7.860;2023-06-24T02:40:44;12.13;;;9.03;;
19733;SDS011;10018;51.230;7.860;2023-06-24T02:43:12;13.03;;;8.97;;
19733;SDS011;10018;51.230;7.860;2023-06-24T02:45:38;16.73;;;8.80;;
19733;SDS011;10018;51.230;7.860;2023-06-24T02:48:05;14.87;;;9.53;;
19733;SDS011;10018;51.230;7.860;2023-06-24T02:50:33;13.07;;;8.70;;
19733;SDS011;10018;51.230;7.860;2023-06-24T02:52:59;15.37;;;9.30;;
19733;SDS011;10018;51.230;7.860;2023-06-24T02:55:30;14.20;;;9.47;;
19733;SDS011;10018;51.230;7.860;2023-06-24T02:57:58;14.67;;;9.80;;
19733;SDS011;10018;51.230;7.860;2023-06-24T03:00:24;15.17;;;9.23;;
19733;SDS011;10018;51.230;7.860;2023-06-24T03:02:50;13.67;;;9.20;;
19733;SDS011;10018;51.230;7.860;2023-06-24T03:05:16;13.73;;;9.40;;
19733;SDS011;10018;51.230;7.860;2023-06-24T03:07:46;11.93;;;8.90;;
19733;SDS011;10018;51.230;7.860;2023-06-24T03:10:14;14.47;;;10.03;;
19733;SDS011;10018;51.230;7.860;2023-06-24T03:12:40;18.10;;;9.80;;
19733;SDS011;10018;51.230;7.860;2023-06-24T03:15:05;18.70;;;10.13;;
19733;SDS011;10018;51.230;7.860;2023-06-24T03:17:31;13.70;;;9.20;;
19733;SDS011;10018;51.230;7.860;2023-06-24T03:19:57;19.20;;;9.57;;
19733;SDS011;10018;51.230;7.860;2023-06-24T03:22:23;16.00;;;10.07;;
19733;SDS011;10018;51.230;7.860;2023-06-24T03:24:49;16.23;;;9.27;;
19733;SDS011;10018;51.230;7.860;2023-06-24T03:27:16;15.53;;;10.77;;
19733;SDS011;10018;51.230;7.860;2023-06-24T03:29:46;17.93;;;10.43;;
19733;SDS011;10018;51.230;7.860;2023-06-24T03:32:12;15.00;;;9.43;;
19733;SDS011;10018;51.230;7.860;2023-06-24T03:34:38;13.47;;;9.53;;
19733;SDS011;10018;51.230;7.860;2023-06-24T03:37:06;14.10;;;9.63;;
19733;SDS011;10018;51.230;7.860;2023-06-24T03:39:31;14.33;;;9.07;;
19733;SDS011;10018;51.230;7.860;2023-06-24T03:41:57;15.13;;;9.73;;
19733;SDS011;10018;51.230;7.860;2023-06-24T03:44:22;16.40;;;9.67;;
19733;SDS011;10018;51.230;7.860;2023-06-24T03:46:48;14.57;;;9.43;;
19733;SDS011;10018;51.230;7.860;2023-06-24T03:49:13;14.57;;;8.90;;
19733;SDS011;10018;51.230;7.860;2023-06-24T03:51:39;14.63;;;9.27;;
19733;SDS011;10018;51.230;7.860;2023-06-24T03:54:05;15.80;;;9.93;;
19733;SDS011;10018;51.230;7.860;2023-06-24T03:56:30;13.97;;;9.67;;
19733;SDS011;10018;51.230;7.860;2023-06-24T03:58:56;16.83;;;9.47;;
19733;SDS011;10018;51.230;7.860;2023-06-24T04:01:21;12.90;;;9.80;;
19733;SDS011;10018;51.230;7.860;2023-06-24T04:03:47;15.47;;;9.47;;
19733;SDS011;10018;51.230;7.860;2023-06-24T04:06:13;11.87;;;9.00;;
19733;SDS011;10018;51.230;7.860;2023-06-24T04:08:38;14.40;;;10.10;;
19733;SDS011;10018;51.230;7.860;2023-06-24T04:11:04;14.83;;;9.30;;
19733;SDS011;10018;51.230;7.860;2023-06-24T04:13:31;12.43;;;9.17;;
19733;SDS011;10018;51.230;7.860;2023-06-24T04:15:57;13.00;;;9.80;;
19733;SDS011;10018;51.230;7.860;2023-06-24T04:18:23;16.10;;;9.60;;
19733;SDS011;10018;51.230;7.860;2023-06-24T04:20:49;13.23;;;9.97;;
19733;SDS011;10018;51.230;7.860;2023-06-24T04:23:14;17.27;;;10.10;;
19733;SDS011;10018;51.230;7.860;2023-06-24T04:25:40;13.77;;;9.30;;
19733;SDS011;10018;51.230;7.860;2023-06-24T04:28:07;14.03;;;9.60;;
19733;SDS011;10018;51.230;7.860;2023-06-24T04:30:33;13.73;;;9.47;;
19733;SDS011;10018;51.230;7.860;2023-06-24T04:33:00;15.10;;;9.07;;
19733;SDS011;10018;51.230;7.860;2023-06-24T04:35:29;16.80;;;9.60;;
19733;SDS011;10018;51.230;7.860;2023-06-24T04:37:55;13.80;;;9.13;;
19733;SDS011;10018;51.230;7.860;2023-06-24T04:40:21;15.80;;;9.27;;
19733;SDS011;10018;51.230;7.860;2023-06-24T04:42:49;10.37;;;8.23;;
19733;SDS011;10018;51.230;7.860;2023-06-24T04:45:14;12.20;;;8.97;;
19733;SDS011;10018;51.230;7.860;2023-06-24T04:47:40;11.43;;;8.57;;
19733;SDS011;10018;51.230;7.860;2023-06-24T04:50:06;12.27;;;8.93;;
19733;SDS011;10018;51.230;7.860;2023-06-24T04:52:34;11.53;;;8.93;;
19733;SDS011;10018;51.230;7.860;2023-06-24T04:55:00;12.97;;;9.70;;
19733;SDS011;10018;51.230;7.860;2023-06-24T04:57:27;11.93;;;9.17;;
19733;SDS011;10018;51.230;7.860;2023-06-24T04:59:54;13.93;;;9.40;;
19733;SDS011;10018;51.230;7.860;2023-06-24T05:02:20;13.17;;;9.00;;
19733;SDS011;10018;51.230;7.860;2023-06-24T05:04:46;19.43;;;9.77;;
19733;SDS011;10018;51.230;7.860;2023-06-24T05:07:14;15.93;;;9.70;;
19733;SDS011;10018;51.230;7.860;2023-06-24T05:09:41;14.47;;;9.20;;
19733;SDS011;10018;51.230;7.860;2023-06-24T05:12:07;15.97;;;9.40;;
19733;SDS011;10018;51.230;7.860;2023-06-24T05:14:34;16.67;;;9.40;;
19733;SDS011;10018;51.230;7.860;2023-06-24T05:17:00;14.50;;;9.43;;
19733;SDS011;10018;51.230;7.860;2023-06-24T05:19:26;13.73;;;10.03;;
19733;SDS011;10018;51.230;7.860;2023-06-24T05:21:51;28.47;;;12.30;;
19733;SDS011;10018;51.230;7.860;2023-06-24T05:24:17;25.93;;;11.83;;
19733;SDS011;10018;51.230;7.860;2023-06-24T05:26:44;21.70;;;10.83;;
19733;SDS011;10018;51.230;7.860;2023-06-24T05:29:10;18.47;;;9.90;;
19733;SDS011;10018;51.230;7.860;2023-06-24T05:31:36;15.53;;;9.40;;
19733;SDS011;10018;51.230;7.860;2023-06-24T05:34:04;12.30;;;9.40;;
19733;SDS011;10018;51.230;7.860;2023-06-24T05:36:33;15.40;;;10.10;;
19733;SDS011;10018;51.230;7.860;2023-06-24T05:38:58;16.70;;;9.67;;
19733;SDS011;10018;51.230;7.860;2023-06-24T05:41:24;16.30;;;9.50;;
19733;SDS011;10018;51.230;7.860;2023-06-24T05:43:59;14.63;;;9.07;;
19733;SDS011;10018;51.230;7.860;2023-06-24T05:46:30;11.63;;;8.30;;
19733;SDS011;10018;51.230;7.860;2023-06-24T05:48:56;11.47;;;8.90;;
19733;SDS011;10018;51.230;7.860;2023-06-24T05:51:21;16.33;;;9.80;;
19733;SDS011;10018;51.230;7.860;2023-06-24T05:53:47;11.07;;;8.80;;
19733;SDS011;10018;51.230;7.860;2023-06-24T05:56:13;13.33;;;8.70;;
19733;SDS011;10018;51.230;7.860;2023-06-24T05:58:38;13.17;;;8.40;;
19733;SDS011;10018;51.230;7.860;2023-06-24T06:01:04;9.87;;;8.27;;
19733;SDS011;10018;51.230;7.860;2023-06-24T06:03:30;12.57;;;8.57;;
19733;SDS011;10018;51.230;7.860;2023-06-24T06:05:56;15.00;;;9.07;;
19733;SDS011;10018;51.230;7.860;2023-06-24T06:08:22;12.23;;;8.23;;
19733;SDS011;10018;51.230;7.860;2023-06-24T06:10:50;12.57;;;8.50;;
19733;SDS011;10018;51.230;7.860;2023-06-24T06:13:15;11.33;;;9.03;;
19733;SDS011;10018;51.230;7.860;2023-06-24T06:15:41;11.90;;;8.63;;
19733;SDS011;10018;51.230;7.860;2023-06-24T06:18:09;12.93;;;8.23;;
19733;SDS011;10018;51.230;7.860;2023-06-24T06:20:34;14.10;;;8.87;;
19733;SDS011;10018;51.230;7.860;2023-06-24T06:23:00;14.00;;;8.10;;
19733;SDS011;10018;51.230;7.860;2023-06-24T06:25:25;12.03;;;8.57;;
19733;SDS011;10018;51.230;7.860;2023-06-24T06:27:51;10.27;;;7.97;;
19733;SDS011;10018;51.230;7.860;2023-06-24T06:30:16;10.53;;;7.77;;
19733;SDS011;10018;51.230;7.860;2023-06-24T06:32:42;14.77;;;8.30;;
19733;SDS011;10018;51.230;7.860;2023-06-24T06:35:08;10.50;;;7.93;;
19733;SDS011;10018;51.230;7.860;2023-06-24T06:37:33;12.57;;;8.03;;
19733;SDS011;10018;51.230;7.860;2023-06-24T06:39:59;11.17;;;7.97;;
19733;SDS011;10018;51.230;7.860;2023-06-24T06:42:28;11.77;;;7.40;;
19733;SDS011;10018;51.230;7.860;2023-06-24T06:44:54;10.65;;;7.78;;
19733;SDS011;10018;51.230;7.860;2023-06-24T06:47:22;11.80;;;7.63;;
19733;SDS011;10018;51.230;7.860;2023-06-24T06:49:48;13.63;;;7.60;;
19733;SDS011;10018;51.230;7.860;2023-06-24T06:52:18;10.53;;;7.23;;
19733;SDS011;10018;51.230;7.860;2023-06-24T06:54:45;13.77;;;8.33;;
19733;SDS011;10018;51.230;7.860;2023-06-24T06:57:11;12.17;;;7.53;;
19733;SDS011;10018;51.230;7.860;2023-06-24T06:59:37;14.53;;;7.20;;
19733;SDS011;10018;51.230;7.860;2023-06-24T07:02:02;9.03;;;7.93;;
19733;SDS011;10018;51.230;7.860;2023-06-24T07:04:30;13.13;;;7.77;;
19733;SDS011;10018;51.230;7.860;2023-06-24T07:06:57;11.93;;;8.10;;
19733;SDS011;10018;51.230;7.860;2023-06-24T07:09:23;9.20;;;7.30;;
19733;SDS011;10018;51.230;7.860;2023-06-24T07:11:49;9.63;;;7.60;;
19733;SDS011;10018;51.230;7.860;2023-06-24T07:14:14;12.00;;;7.30;;
19733;SDS011;10018;51.230;7.860;2023-06-24T07:16:40;9.00;;;7.37;;
19733;SDS011;10018;51.230;7.860;2023-06-24T07:19:05;10.93;;;7.23;;
19733;SDS011;10018;51.230;7.860;2023-06-24T07:21:31;9.27;;;7.07;;
19733;SDS011;10018;51.230;7.860;2023-06-24T07:23:57;11.50;;;7.83;;
19733;SDS011;10018;51.230;7.860;2023-06-24T07:26:22;11.00;;;7.33;;
19733;SDS011;10018;51.230;7.860;2023-06-24T07:28:48;11.83;;;7.60;;
19733;SDS011;10018;51.230;7.860;2023-06-24T07:31:16;10.17;;;6.90;;
19733;SDS011;10018;51.230;7.860;2023-06-24T07:33:44;11.20;;;7.10;;
19733;SDS011;10018;51.230;7.860;2023-06-24T07:36:09;9.40;;;7.23;;
19733;SDS011;10018;51.230;7.860;2023-06-24T07:38:35;7.83;;;6.40;;
19733;SDS011;10018;51.230;7.860;2023-06-24T07:41:00;9.67;;;7.47;;
19733;SDS011;10018;51.230;7.860;2023-06-24T07:43:26;8.17;;;6.20;;
19733;SDS011;10018;51.230;7.860;2023-06-24T07:45:51;8.90;;;6.90;;
19733;SDS011;10018;51.230;7.860;2023-06-24T07:48:17;11.20;;;6.60;;
19733;SDS011;10018;51.230;7.860;2023-06-24T07:50:43;11.60;;;6.80;;
19733;SDS011;10018;51.230;7.860;2023-06-24T07:53:08;10.03;;;6.30;;
19733;SDS011;10018;51.230;7.860;2023-06-24T07:55:34;11.60;;;7.33;;
19733;SDS011;10018;51.230;7.860;2023-06-24T07:57:59;9.93;;;7.27;;
19733;SDS011;10018;51.230;7.860;2023-06-24T08:00:25;9.60;;;6.97;;
19733;SDS011;10018;51.230;7.860;2023-06-24T08:02:50;12.80;;;7.20;;
19733;SDS011;10018;51.230;7.860;2023-06-24T08:05:16;11.10;;;7.03;;
19733;SDS011;10018;51.230;7.860;2023-06-24T08:07:43;9.40;;;6.93;;
19733;SDS011;10018;51.230;7.860;2023-06-24T08:10:09;10.47;;;6.47;;
19733;SDS011;10018;51.230;7.860;2023-06-24T08:12:35;10.43;;;6.93;;
19733;SDS011;10018;51.230;7.860;2023-06-24T08:15:00;8.90;;;6.83;;
19733;SDS011;10018;51.230;7.860;2023-06-24T08:17:26;8.40;;;6.23;;
19733;SDS011;10018;51.230;7.860;2023-06-24T08:19:52;8.10;;;6.30;;
19733;SDS011;10018;51.230;7.860;2023-06-24T08:22:17;7.77;;;6.37;;
19733;SDS011;10018;51.230;7.860;2023-06-24T08:24:45;8.57;;;6.73;;
19733;SDS011;10018;51.230;7.860;2023-06-24T08:27:11;15.37;;;7.23;;
19733;SDS011;10018;51.230;7.860;2023-06-24T08:29:36;9.97;;;6.57;;
19733;SDS011;10018;51.230;7.860;2023-06-24T08:32:03;12.23;;;6.97;;
19733;SDS011;10018;51.230;7.860;2023-06-24T08:34:34;11.87;;;7.63;;
19733;SDS011;10018;51.230;7.860;2023-06-24T08:36:59;9.20;;;6.40;;
19733;SDS011;10018;51.230;7.860;2023-06-24T08:39:26;8.83;;;7.30;;
19733;SDS011;10018;51.230;7.860;2023-06-24T08:41:52;7.93;;;6.60;;
19733;SDS011;10018;51.230;7.860;2023-06-24T08:44:17;9.47;;;6.53;;
19733;SDS011;10018;51.230;7.860;2023-06-24T08:46:44;8.53;;;6.97;;
19733;SDS011;10018;51.230;7.860;2023-06-24T08:49:25;9.63;;;6.70;;
19733;SDS011;10018;51.230;7.860;2023-06-24T08:51:58;8.60;;;6.77;;
19733;SDS011;10018;51.230;7.860;2023-06-24T08:54:33;10.20;;;6.63;;
19733;SDS011;10018;51.230;7.860;2023-06-24T08:57:01;9.37;;;7.23;;
19733;SDS011;10018;51.230;7.860;2023-06-24T08:59:36;9.30;;;7.37;;
19733;SDS011;10018;51.230;7.860;2023-06-24T09:02:02;8.27;;;6.37;;
19733;SDS011;10018;51.230;7.860;2023-06-24T09:04:30;8.80;;;7.03;;
19733;SDS011;10018;51.230;7.860;2023-06-24T09:06:56;11.20;;;6.90;;
19733;SDS011;10018;51.230;7.860;2023-06-24T09:09:22;7.77;;;6.17;;
19733;SDS011;10018;51.230;7.860;2023-06-24T09:11:54;8.67;;;6.90;;
19733;SDS011;10018;51.230;7.860;2023-06-24T09:14:22;8.13;;;6.30;;
19733;SDS011;10018;51.230;7.860;2023-06-24T09:16:56;10.50;;;7.27;;
19733;SDS011;10018;51.230;7.860;2023-06-24T09:19:29;9.47;;;6.30;;
19733;SDS011;10018;51.230;7.860;2023-06-24T09:22:04;10.50;;;7.07;;
19733;SDS011;10018;51.230;7.860;2023-06-24T09:24:32;7.67;;;6.37;;
19733;SDS011;10018;51.230;7.860;2023-06-24T09:27:01;9.50;;;6.73;;
19733;SDS011;10018;51.230;7.860;2023-06-24T09:29:32;10.83;;;6.03;;
19733;SDS011;10018;51.230;7.860;2023-06-24T09:31:59;10.13;;;6.17;;
19733;SDS011;10018;51.230;7.860;2023-06-24T09:34:28;9.93;;;6.43;;
19733;SDS011;10018;51.230;7.860;2023-06-24T09:36:54;9.97;;;7.07;;
19733;SDS011;10018;51.230;7.860;2023-06-24T09:39:28;9.83;;;6.73;;
19733;SDS011;10018;51.230;7.860;2023-06-24T09:42:07;7.43;;;5.97;;
19733;SDS011;10018;51.230;7.860;2023-06-24T09:44:34;8.13;;;6.50;;
19733;SDS011;10018;51.230;7.860;2023-06-24T09:47:02;8.70;;;6.20;;
19733;SDS011;10018;51.230;7.860;2023-06-24T09:49:28;11.77;;;6.97;;
19733;SDS011;10018;51.230;7.860;2023-06-24T09:51:56;10.67;;;6.63;;
19733;SDS011;10018;51.230;7.860;2023-06-24T09:54:23;12.63;;;6.33;;
19733;SDS011;10018;51.230;7.860;2023-06-24T09:56:53;9.70;;;6.30;;
19733;SDS011;10018;51.230;7.860;2023-06-24T09:59:20;9.90;;;5.90;;
19733;SDS011;10018;51.230;7.860;2023-06-24T10:01:49;6.73;;;5.60;;
19733;SDS011;10018;51.230;7.860;2023-06-24T10:04:19;7.30;;;6.00;;
19733;SDS011;10018;51.230;7.860;2023-06-24T10:06:47;9.33;;;5.90;;
19733;SDS011;10018;51.230;7.860;2023-06-24T10:09:15;9.10;;;6.40;;
19733;SDS011;10018;51.230;7.860;2023-06-24T10:11:47;8.23;;;6.33;;
19733;SDS011;10018;51.230;7.860;2023-06-24T10:14:13;10.77;;;6.57;;
19733;SDS011;10018;51.230;7.860;2023-06-24T10:16:40;8.93;;;5.93;;
19733;SDS011;10018;51.230;7.860;2023-06-24T10:19:07;8.97;;;6.63;;
19733;SDS011;10018;51.230;7.860;2023-06-24T10:21:51;9.07;;;6.27;;
19733;SDS011;10018;51.230;7.860;2023-06-24T10:24:28;8.33;;;6.33;;
19733;SDS011;10018;51.230;7.860;2023-06-24T10:27:02;9.63;;;6.60;;
19733;SDS011;10018;51.230;7.860;2023-06-24T10:34:39;7.53;;;5.90;;
19733;SDS011;10018;51.230;7.860;2023-06-24T10:37:10;7.37;;;6.07;;
19733;SDS011;10018;51.230;7.860;2023-06-24T10:47:35;9.90;;;5.70;;
19733;SDS011;10018;51.230;7.860;2023-06-24T10:50:03;7.93;;;5.50;;
19733;SDS011;10018;51.230;7.860;2023-06-24T10:52:30;7.13;;;6.03;;
19733;SDS011;10018;51.230;7.860;2023-06-24T10:54:56;7.03;;;5.83;;
19733;SDS011;10018;51.230;7.860;2023-06-24T10:57:24;8.53;;;5.60;;
19733;SDS011;10018;51.230;7.860;2023-06-24T10:59:53;6.20;;;4.30;;
19733;SDS011;10018;51.230;7.860;2023-06-24T11:02:20;7.07;;;4.70;;
19733;SDS011;10018;51.230;7.860;2023-06-24T11:04:51;7.47;;;4.90;;
19733;SDS011;10018;51.230;7.860;2023-06-24T11:07:18;6.97;;;5.13;;
19733;SDS011;10018;51.230;7.860;2023-06-24T11:09:48;6.87;;;4.97;;
19733;SDS011;10018;51.230;7.860;2023-06-24T11:12:18;6.40;;;4.73;;
19733;SDS011;10018;51.230;7.860;2023-06-24T11:14:44;6.47;;;5.10;;
19733;SDS011;10018;51.230;7.860;2023-06-24T11:17:10;6.53;;;4.93;;
19733;SDS011;10018;51.230;7.860;2023-06-24T11:19:38;8.00;;;5.00;;
19733;SDS011;10018;51.230;7.860;2023-06-24T11:22:05;6.37;;;5.10;;
19733;SDS011;10018;51.230;7.860;2023-06-24T11:24:32;8.50;;;4.77;;
19733;SDS011;10018;51.230;7.860;2023-06-24T11:26:58;6.47;;;4.17;;
19733;SDS011;10018;51.230;7.860;2023-06-24T11:29:23;9.57;;;4.23;;
19733;SDS011;10018;51.230;7.860;2023-06-24T11:31:49;7.87;;;4.40;;
19733;SDS011;10018;51.230;7.860;2023-06-24T11:34:16;5.50;;;4.10;;
19733;SDS011;10018;51.230;7.860;2023-06-24T11:36:42;6.23;;;4.30;;
19733;SDS011;10018;51.230;7.860;2023-06-24T11:39:08;8.67;;;4.50;;
19733;SDS011;10018;51.230;7.860;2023-06-24T11:41:33;6.47;;;3.83;;
19733;SDS011;10018;51.230;7.860;2023-06-24T11:43:59;5.07;;;3.73;;
19733;SDS011;10018;51.230;7.860;2023-06-24T11:46:25;5.93;;;3.70;;
19733;SDS011;10018;51.230;7.860;2023-06-24T11:51:33;7.40;;;4.20;;
19733;SDS011;10018;51.230;7.860;2023-06-24T11:54:00;5.60;;;4.00;;
19733;SDS011;10018;51.230;7.860;2023-06-24T11:56:35;6.47;;;4.20;;
19733;SDS011;10018;51.230;7.860;2023-06-24T11:59:03;6.77;;;4.20;;
19733;SDS011;10018;51.230;7.860;2023-06-24T12:01:32;5.77;;;4.50;;
19733;SDS011;10018;51.230;7.860;2023-06-24T12:04:14;7.17;;;4.30;;
19733;SDS011;10018;51.230;7.860;2023-06-24T12:06:40;7.10;;;4.77;;
19733;SDS011;10018;51.230;7.860;2023-06-24T12:09:07;5.90;;;4.60;;
19733;SDS011;10018;51.230;7.860;2023-06-24T12:11:33;7.10;;;4.87;;
19733;SDS011;10018;51.230;7.860;2023-06-24T12:13:58;7.47;;;4.80;;
19733;SDS011;10018;51.230;7.860;2023-06-24T12:16:24;5.10;;;4.20;;
19733;SDS011;10018;51.230;7.860;2023-06-24T12:18:51;6.60;;;4.37;;
19733;SDS011;10018;51.230;7.860;2023-06-24T12:21:17;6.07;;;4.17;;
19733;SDS011;10018;51.230;7.860;2023-06-24T12:23:43;6.53;;;4.40;;
19733;SDS011;10018;51.230;7.860;2023-06-24T12:26:14;5.53;;;3.93;;
19733;SDS011;10018;51.230;7.860;2023-06-24T12:28:40;6.33;;;4.33;;
19733;SDS011;10018;51.230;7.860;2023-06-24T12:31:06;6.40;;;4.40;;
19733;SDS011;10018;51.230;7.860;2023-06-24T12:33:31;7.17;;;4.37;;
19733;SDS011;10018;51.230;7.860;2023-06-24T12:35:58;5.17;;;4.30;;
19733;SDS011;10018;51.230;7.860;2023-06-24T12:38:24;5.87;;;4.23;;
19733;SDS011;10018;51.230;7.860;2023-06-24T12:40:49;8.03;;;4.30;;
19733;SDS011;10018;51.230;7.860;2023-06-24T12:43:15;5.33;;;4.07;;
19733;SDS011;10018;51.230;7.860;2023-06-24T12:45:41;8.47;;;4.50;;
19733;SDS011;10018;51.230;7.860;2023-06-24T12:48:10;4.90;;;4.13;;
19733;SDS011;10018;51.230;7.860;2023-06-24T12:50:36;6.10;;;4.10;;
19733;SDS011;10018;51.230;7.860;2023-06-24T12:53:02;6.40;;;3.80;;
19733;SDS011;10018;51.230;7.860;2023-06-24T12:55:28;6.93;;;4.50;;
19733;SDS011;10018;51.230;7.860;2023-06-24T12:57:54;5.37;;;4.00;;
19733;SDS011;10018;51.230;7.860;2023-06-24T13:00:20;6.77;;;4.57;;
19733;SDS011;10018;51.230;7.860;2023-06-24T13:02:46;6.23;;;4.57;;
19733;SDS011;10018;51.230;7.860;2023-06-24T13:05:12;5.97;;;4.53;;
19733;SDS011;10018;51.230;7.860;2023-06-24T13:07:37;7.90;;;4.40;;
19733;SDS011;10018;51.230;7.860;2023-06-24T13:10:03;9.13;;;4.70;;
19733;SDS011;10018;51.230;7.860;2023-06-24T13:12:31;5.80;;;4.00;;
19733;SDS011;10018;51.230;7.860;2023-06-24T13:14:57;5.93;;;4.20;;
19733;SDS011;10018;51.230;7.860;2023-06-24T13:17:23;8.13;;;4.60;;
19733;SDS011;10018;51.230;7.860;2023-06-24T13:19:49;5.20;;;4.00;;
19733;SDS011;10018;51.230;7.860;2023-06-24T13:22:15;8.10;;;5.10;;
19733;SDS011;10018;51.230;7.860;2023-06-24T13:24:41;6.47;;;4.10;;
19733;SDS011;10018;51.230;7.860;2023-06-24T13:27:07;6.10;;;4.20;;
19733;SDS011;10018;51.230;7.860;2023-06-24T13:29:32;7.57;;;4.73;;
19733;SDS011;10018;51.230;7.860;2023-06-24T13:31:58;6.93;;;4.70;;
19733;SDS011;10018;51.230;7.860;2023-06-24T13:34:24;5.70;;;4.60;;
19733;SDS011;10018;51.230;7.860;2023-06-24T13:36:49;5.13;;;4.10;;
19733;SDS011;10018;51.230;7.860;2023-06-24T13:39:15;6.53;;;4.53;;
19733;SDS011;10018;51.230;7.860;2023-06-24T13:41:44;6.27;;;4.67;;
19733;SDS011;10018;51.230;7.860;2023-06-24T13:44:10;6.97;;;4.43;;
19733;SDS011;10018;51.230;7.860;2023-06-24T13:46:36;6.27;;;4.60;;
19733;SDS011;10018;51.230;7.860;2023-06-24T13:49:01;7.00;;;4.27;;
19733;SDS011;10018;51.230;7.860;2023-06-24T13:51:27;7.00;;;4.40;;
19733;SDS011;10018;51.230;7.860;2023-06-24T13:53:53;11.10;;;4.87;;
19733;SDS011;10018;51.230;7.860;2023-06-24T13:56:20;6.97;;;4.43;;
19733;SDS011;10018;51.230;7.860;2023-06-24T13:58:46;9.33;;;4.63;;
19733;SDS011;10018;51.230;7.860;2023-06-24T14:01:12;5.03;;;3.97;;
19733;SDS011;10018;51.230;7.860;2023-06-24T14:03:39;5.00;;;3.80;;
19733;SDS011;10018;51.230;7.860;2023-06-24T14:06:04;5.73;;;4.33;;
19733;SDS011;10018;51.230;7.860;2023-06-24T14:08:32;6.10;;;4.40;;
19733;SDS011;10018;51.230;7.860;2023-06-24T14:10:58;5.37;;;4.13;;
19733;SDS011;10018;51.230;7.860;2023-06-24T14:13:25;5.40;;;4.47;;
19733;SDS011;10018;51.230;7.860;2023-06-24T14:15:51;6.50;;;4.47;;
19733;SDS011;10018;51.230;7.860;2023-06-24T14:18:17;7.93;;;4.17;;
19733;SDS011;10018;51.230;7.860;2023-06-24T14:20:43;6.67;;;4.00;;
19733;SDS011;10018;51.230;7.860;2023-06-24T14:23:09;5.43;;;4.10;;
19733;SDS011;10018;51.230;7.860;2023-06-24T14:25:35;6.40;;;4.20;;
19733;SDS011;10018;51.230;7.860;2023-06-24T14:28:05;6.10;;;4.30;;
19733;SDS011;10018;51.230;7.860;2023-06-24T14:30:31;5.87;;;4.13;;
19733;SDS011;10018;51.230;7.860;2023-06-24T14:32:56;5.50;;;4.40;;
19733;SDS011;10018;51.230;7.860;2023-06-24T14:35:24;7.27;;;4.57;;
19733;SDS011;10018;51.230;7.860;2023-06-24T14:37:50;5.93;;;4.10;;
19733;SDS011;10018;51.230;7.860;2023-06-24T14:40:16;5.10;;;4.30;;
19733;SDS011;10018;51.230;7.860;2023-06-24T14:42:41;6.10;;;4.40;;
19733;SDS011;10018;51.230;7.860;2023-06-24T14:45:07;4.67;;;3.97;;
19733;SDS011;10018;51.230;7.860;2023-06-24T14:47:33;6.83;;;4.03;;
19733;SDS011;10018;51.230;7.860;2023-06-24T14:49:59;5.67;;;4.40;;
19733;SDS011;10018;51.230;7.860;2023-06-24T14:52:24;6.53;;;4.20;;
19733;SDS011;10018;51.230;7.860;2023-06-24T14:54:52;6.47;;;4.00;;
19733;SDS011;10018;51.230;7.860;2023-06-24T14:57:17;6.13;;;3.70;;
19733;SDS011;10018;51.230;7.860;2023-06-24T14:59:43;6.33;;;3.90;;
19733;SDS011;10018;51.230;7.860;2023-06-24T15:02:09;5.33;;;3.93;;
19733;SDS011;10018;51.230;7.860;2023-06-24T15:04:37;5.30;;;3.93;;
19733;SDS011;10018;51.230;7.860;2023-06-24T15:07:03;7.37;;;4.90;;
19733;SDS011;10018;51.230;7.860;2023-06-24T15:09:29;6.87;;;4.20;;